sensor_id;sensor_type;location;lat;lon;timestamp;temperature;humidity
16823;DHT22;8528;49.976;11.858;2023-06-26T00:00:33;14.60;99.90
16823;DHT22;8528;49.976;11.858;2023-06-26T00:03:01;14.60;99.90
16823;DHT22;8528;49.976;11.858;2023-06-26T00:05:28;14.60;99.90
16823;DHT22;8528;49.976;11.858;2023-06-26T00:07:57;14.60;99.90
16823;DHT22;8528;49.976;11.858;2023-06-26T00:10:27;14.50;99.90
16823;DHT22;8528;49.976;11.858;2023-06-26T00:12:54;14.50;99.90
16823;DHT22;8528;49.976;11.858;2023-06-26T00:15:21;14.50;99.90
16823;DHT22;8528;49.976;11.858;2023-06-26T00:17:48;14.40;99.90
16823;DHT22;8528;49.976;11.858;2023-06-26T00:20:17;14.40;99.90
16823;DHT22;8528;49.976;11.858;2023-06-26T00:22:45;14.40;99.90
16823;DHT22;8528;49.976;11.858;2023-06-26T00:25:12;14.40;99.90
16823;DHT22;8528;49.976;11.858;2023-06-26T00:27:39;14.30;99.90
16823;DHT22;8528;49.976;11.858;2023-06-26T00:30:07;14.30;99.90
16823;DHT22;8528;49.976;11.858;2023-06-26T00:32:34;14.30;99.90
16823;DHT22;8528;49.976;11.858;2023-06-26T00:35:02;14.20;99.90
16823;DHT22;8528;49.976;11.858;2023-06-26T00:37:29;14.20;99.90
16823;DHT22;8528;49.976;11.858;2023-06-26T00:39:56;14.20;99.90
16823;DHT22;8528;49.976;11.858;2023-06-26T00:42:23;14.20;99.90
16823;DHT22;8528;49.976;11.858;2023-06-26T00:44:50;14.10;99.90
16823;DHT22;8528;49.976;11.858;2023-06-26T00:47:17;14.20;99.90
16823;DHT22;8528;49.976;11.858;2023-06-26T00:49:44;14.10;99.90
16823;DHT22;8528;49.976;11.858;2023-06-26T00:52:11;14.10;99.90
16823;DHT22;8528;49.976;11.858;2023-06-26T00:54:38;14.10;99.90
16823;DHT22;8528;49.976;11.858;2023-06-26T00:57:05;14.00;99.90
16823;DHT22;8528;49.976;11.858;2023-06-26T00:59:33;14.00;99.90
16823;DHT22;8528;49.976;11.858;2023-06-26T01:01:59;13.90;99.90
16823;DHT22;8528;49.976;11.858;2023-06-26T01:04:26;13.90;99.90
16823;DHT22;8528;49.976;11.858;2023-06-26T01:06:55;13.90;99.90
16823;DHT22;8528;49.976;11.858;2023-06-26T01:09:23;13.80;99.90
16823;DHT22;8528;49.976;11.858;2023-06-26T01:11:50;13.80;99.90
16823;DHT22;8528;49.976;11.858;2023-06-26T01:14:17;13.80;99.90
16823;DHT22;8528;49.976;11.858;2023-06-26T01:16:45;13.80;99.90
16823;DHT22;8528;49.976;11.858;2023-06-26T01:19:20;13.70;99.90
16823;DHT22;8528;49.976;11.858;2023-06-26T01:22:05;13.70;99.90
16823;DHT22;8528;49.976;11.858;2023-06-26T01:25:15;13.70;99.90
16823;DHT22;8528;49.976;11.858;2023-06-26T01:27:48;13.70;99.90
16823;DHT22;8528;49.976;11.858;2023-06-26T01:30:16;13.60;99.90
16823;DHT22;8528;49.976;11.858;2023-06-26T01:32:44;13.60;99.90
16823;DHT22;8528;49.976;11.858;2023-06-26T01:35:13;13.60;99.90
16823;DHT22;8528;49.976;11.858;2023-06-26T01:37:41;13.50;99.90
16823;DHT22;8528;49.976;11.858;2023-06-26T01:40:08;13.50;99.90
16823;DHT22;8528;49.976;11.858;2023-06-26T01:42:36;13.40;99.90
16823;DHT22;8528;49.976;11.858;2023-06-26T01:45:12;13.40;99.90
16823;DHT22;8528;49.976;11.858;2023-06-26T01:47:44;13.40;99.90
16823;DHT22;8528;49.976;11.858;2023-06-26T01:50:18;13.40;99.90
16823;DHT22;8528;49.976;11.858;2023-06-26T01:52:53;13.40;99.90
16823;DHT22;8528;49.976;11.858;2023-06-26T01:55:37;13.30;99.90
16823;DHT22;8528;49.976;11.858;2023-06-26T01:58:06;13.30;99.90
16823;DHT22;8528;49.976;11.858;2023-06-26T02:00:34;13.30;99.90
16823;DHT22;8528;49.976;11.858;2023-06-26T02:03:01;13.30;99.90
16823;DHT22;8528;49.976;11.858;2023-06-26T02:05:28;13.30;99.90
16823;DHT22;8528;49.976;11.858;2023-06-26T02:07:57;13.20;99.90
16823;DHT22;8528;49.976;11.858;2023-06-26T02:10:24;13.20;99.90
16823;DHT22;8528;49.976;11.858;2023-06-26T02:12:51;13.20;99.90
16823;DHT22;8528;49.976;11.858;2023-06-26T02:15:18;13.10;99.90
16823;DHT22;8528;49.976;11.858;2023-06-26T02:17:45;13.10;99.90
16823;DHT22;8528;49.976;11.858;2023-06-26T02:20:15;13.10;99.90
16823;DHT22;8528;49.976;11.858;2023-06-26T02:22:42;13.00;99.90
16823;DHT22;8528;49.976;11.858;2023-06-26T02:25:10;13.00;99.90
16823;DHT22;8528;49.976;11.858;2023-06-26T02:27:39;13.00;99.90
16823;DHT22;8528;49.976;11.858;2023-06-26T02:30:08;13.00;99.90
16823;DHT22;8528;49.976;11.858;2023-06-26T02:32:35;12.90;99.90
16823;DHT22;8528;49.976;11.858;2023-06-26T02:35:02;12.90;99.90
16823;DHT22;8528;49.976;11.858;2023-06-26T02:37:29;12.90;99.90
16823;DHT22;8528;49.976;11.858;2023-06-26T02:39:56;12.90;99.90
16823;DHT22;8528;49.976;11.858;2023-06-26T02:42:23;12.90;99.90
16823;DHT22;8528;49.976;11.858;2023-06-26T02:44:49;12.90;99.90
16823;DHT22;8528;49.976;11.858;2023-06-26T02:47:16;12.80;99.90
16823;DHT22;8528;49.976;11.858;2023-06-26T02:49:43;12.80;99.90
16823;DHT22;8528;49.976;11.858;2023-06-26T02:52:10;12.80;99.90
16823;DHT22;8528;49.976;11.858;2023-06-26T02:54:37;12.80;99.90
16823;DHT22;8528;49.976;11.858;2023-06-26T02:57:04;12.70;99.90
16823;DHT22;8528;49.976;11.858;2023-06-26T02:59:31;12.70;99.90
16823;DHT22;8528;49.976;11.858;2023-06-26T03:01:58;12.70;99.90
16823;DHT22;8528;49.976;11.858;2023-06-26T03:04:25;12.60;99.90
16823;DHT22;8528;49.976;11.858;2023-06-26T03:06:52;12.60;99.90
16823;DHT22;8528;49.976;11.858;2023-06-26T03:09:20;12.60;99.90
16823;DHT22;8528;49.976;11.858;2023-06-26T03:11:47;12.60;99.90
16823;DHT22;8528;49.976;11.858;2023-06-26T03:14:14;12.60;99.90
16823;DHT22;8528;49.976;11.858;2023-06-26T03:16:40;12.60;99.90
16823;DHT22;8528;49.976;11.858;2023-06-26T03:19:07;12.60;99.90
16823;DHT22;8528;49.976;11.858;2023-06-26T03:21:34;12.60;99.90
16823;DHT22;8528;49.976;11.858;2023-06-26T03:24:02;12.60;99.90
16823;DHT22;8528;49.976;11.858;2023-06-26T03:26:28;12.60;99.90
16823;DHT22;8528;49.976;11.858;2023-06-26T03:28:55;12.60;99.90
16823;DHT22;8528;49.976;11.858;2023-06-26T03:31:22;12.70;99.90
16823;DHT22;8528;49.976;11.858;2023-06-26T03:33:49;12.70;99.90
16823;DHT22;8528;49.976;11.858;2023-06-26T03:36:16;12.70;99.90
16823;DHT22;8528;49.976;11.858;2023-06-26T03:38:43;12.70;99.90
16823;DHT22;8528;49.976;11.858;2023-06-26T03:41:10;12.70;99.90
16823;DHT22;8528;49.976;11.858;2023-06-26T03:43:37;12.80;99.90
16823;DHT22;8528;49.976;11.858;2023-06-26T03:46:04;12.80;99.90
16823;DHT22;8528;49.976;11.858;2023-06-26T03:48:31;12.90;99.90
16823;DHT22;8528;49.976;11.858;2023-06-26T03:50:58;12.90;99.90
16823;DHT22;8528;49.976;11.858;2023-06-26T03:53:25;12.90;99.90
16823;DHT22;8528;49.976;11.858;2023-06-26T03:55:51;13.00;99.90
16823;DHT22;8528;49.976;11.858;2023-06-26T03:58:18;13.00;99.90
16823;DHT22;8528;49.976;11.858;2023-06-26T04:00:45;13.10;99.90
16823;DHT22;8528;49.976;11.858;2023-06-26T04:03:14;13.20;99.90
16823;DHT22;8528;49.976;11.858;2023-06-26T04:05:40;13.20;99.90
16823;DHT22;8528;49.976;11.858;2023-06-26T04:08:08;13.30;99.90
16823;DHT22;8528;49.976;11.858;2023-06-26T04:10:35;13.30;99.90
16823;DHT22;8528;49.976;11.858;2023-06-26T04:13:03;13.40;99.90
16823;DHT22;8528;49.976;11.858;2023-06-26T04:15:29;13.50;99.90
16823;DHT22;8528;49.976;11.858;2023-06-26T04:17:56;13.60;99.90
16823;DHT22;8528;49.976;11.858;2023-06-26T04:20:23;13.70;99.90
16823;DHT22;8528;49.976;11.858;2023-06-26T04:22:50;13.90;99.90
16823;DHT22;8528;49.976;11.858;2023-06-26T04:25:17;14.20;99.90
16823;DHT22;8528;49.976;11.858;2023-06-26T04:27:44;14.80;99.90
16823;DHT22;8528;49.976;11.858;2023-06-26T04:30:11;15.30;99.90
16823;DHT22;8528;49.976;11.858;2023-06-26T04:32:39;16.00;99.90
16823;DHT22;8528;49.976;11.858;2023-06-26T04:35:06;16.60;99.90
16823;DHT22;8528;49.976;11.858;2023-06-26T04:37:33;17.20;99.90
16823;DHT22;8528;49.976;11.858;2023-06-26T04:40:00;17.80;99.90
16823;DHT22;8528;49.976;11.858;2023-06-26T04:42:27;18.30;99.90
16823;DHT22;8528;49.976;11.858;2023-06-26T04:44:53;18.80;99.90
16823;DHT22;8528;49.976;11.858;2023-06-26T04:47:20;19.30;99.90
16823;DHT22;8528;49.976;11.858;2023-06-26T04:49:47;19.70;99.90
16823;DHT22;8528;49.976;11.858;2023-06-26T04:52:14;20.00;99.90
16823;DHT22;8528;49.976;11.858;2023-06-26T04:54:41;20.40;99.90
16823;DHT22;8528;49.976;11.858;2023-06-26T04:57:08;20.90;99.90
16823;DHT22;8528;49.976;11.858;2023-06-26T04:59:36;21.30;99.90
16823;DHT22;8528;49.976;11.858;2023-06-26T05:02:03;21.70;99.90
16823;DHT22;8528;49.976;11.858;2023-06-26T05:04:31;22.10;99.90
16823;DHT22;8528;49.976;11.858;2023-06-26T05:06:59;22.50;99.90
16823;DHT22;8528;49.976;11.858;2023-06-26T05:09:25;22.90;99.90
16823;DHT22;8528;49.976;11.858;2023-06-26T05:11:52;23.40;99.90
16823;DHT22;8528;49.976;11.858;2023-06-26T05:14:19;23.70;99.90
16823;DHT22;8528;49.976;11.858;2023-06-26T05:16:49;24.10;99.90
16823;DHT22;8528;49.976;11.858;2023-06-26T05:19:16;24.60;99.90
16823;DHT22;8528;49.976;11.858;2023-06-26T05:21:43;25.10;99.90
16823;DHT22;8528;49.976;11.858;2023-06-26T05:24:12;25.60;99.90
16823;DHT22;8528;49.976;11.858;2023-06-26T05:26:40;25.90;98.80
16823;DHT22;8528;49.976;11.858;2023-06-26T05:29:07;26.40;97.50
16823;DHT22;8528;49.976;11.858;2023-06-26T05:31:36;26.70;96.60
16823;DHT22;8528;49.976;11.858;2023-06-26T05:34:07;26.90;95.60
16823;DHT22;8528;49.976;11.858;2023-06-26T05:36:38;27.30;94.60
16823;DHT22;8528;49.976;11.858;2023-06-26T05:39:05;27.40;93.60
16823;DHT22;8528;49.976;11.858;2023-06-26T05:41:32;27.80;92.30
16823;DHT22;8528;49.976;11.858;2023-06-26T05:43:59;28.40;90.80
16823;DHT22;8528;49.976;11.858;2023-06-26T05:46:26;28.60;90.30
16823;DHT22;8528;49.976;11.858;2023-06-26T05:48:53;28.90;89.10
16823;DHT22;8528;49.976;11.858;2023-06-26T05:51:20;29.30;86.50
16823;DHT22;8528;49.976;11.858;2023-06-26T05:53:48;29.70;82.30
16823;DHT22;8528;49.976;11.858;2023-06-26T05:56:15;29.90;79.60
16823;DHT22;8528;49.976;11.858;2023-06-26T05:58:43;30.10;79.20
16823;DHT22;8528;49.976;11.858;2023-06-26T06:01:10;30.40;76.40
16823;DHT22;8528;49.976;11.858;2023-06-26T06:03:39;30.90;71.60
16823;DHT22;8528;49.976;11.858;2023-06-26T06:06:07;31.20;69.00
16823;DHT22;8528;49.976;11.858;2023-06-26T06:08:34;31.70;65.50
16823;DHT22;8528;49.976;11.858;2023-06-26T06:11:01;32.00;63.50
16823;DHT22;8528;49.976;11.858;2023-06-26T06:13:28;32.50;59.50
16823;DHT22;8528;49.976;11.858;2023-06-26T06:15:55;32.40;58.00
16823;DHT22;8528;49.976;11.858;2023-06-26T06:18:22;32.90;58.20
16823;DHT22;8528;49.976;11.858;2023-06-26T06:20:50;32.50;56.80
16823;DHT22;8528;49.976;11.858;2023-06-26T06:23:16;32.60;55.80
16823;DHT22;8528;49.976;11.858;2023-06-26T06:25:43;32.50;56.30
16823;DHT22;8528;49.976;11.858;2023-06-26T06:28:10;32.90;55.50
16823;DHT22;8528;49.976;11.858;2023-06-26T06:30:37;33.20;53.60
16823;DHT22;8528;49.976;11.858;2023-06-26T06:33:11;32.90;52.80
16823;DHT22;8528;49.976;11.858;2023-06-26T06:35:38;33.40;52.90
16823;DHT22;8528;49.976;11.858;2023-06-26T06:38:06;33.70;51.90
16823;DHT22;8528;49.976;11.858;2023-06-26T06:40:32;33.60;51.30
16823;DHT22;8528;49.976;11.858;2023-06-26T06:42:59;33.70;50.90
16823;DHT22;8528;49.976;11.858;2023-06-26T06:45:26;34.20;50.00
16823;DHT22;8528;49.976;11.858;2023-06-26T06:47:53;34.20;48.60
16823;DHT22;8528;49.976;11.858;2023-06-26T06:50:20;34.70;47.00
16823;DHT22;8528;49.976;11.858;2023-06-26T06:52:47;35.40;46.20
16823;DHT22;8528;49.976;11.858;2023-06-26T06:55:14;35.60;44.00
16823;DHT22;8528;49.976;11.858;2023-06-26T06:57:41;36.00;44.30
16823;DHT22;8528;49.976;11.858;2023-06-26T07:00:10;36.00;44.20
16823;DHT22;8528;49.976;11.858;2023-06-26T07:02:38;35.50;45.30
16823;DHT22;8528;49.976;11.858;2023-06-26T07:05:06;34.90;45.70
16823;DHT22;8528;49.976;11.858;2023-06-26T07:07:34;34.70;46.00
16823;DHT22;8528;49.976;11.858;2023-06-26T07:10:07;35.20;49.10
16823;DHT22;8528;49.976;11.858;2023-06-26T07:12:35;35.50;43.40
16823;DHT22;8528;49.976;11.858;2023-06-26T07:15:04;36.40;39.30
16823;DHT22;8528;49.976;11.858;2023-06-26T07:17:32;36.20;41.00
16823;DHT22;8528;49.976;11.858;2023-06-26T07:20:02;36.50;39.00
16823;DHT22;8528;49.976;11.858;2023-06-26T07:22:37;37.20;38.30
16823;DHT22;8528;49.976;11.858;2023-06-26T07:25:04;37.20;36.90
16823;DHT22;8528;49.976;11.858;2023-06-26T07:27:31;37.40;36.10
16823;DHT22;8528;49.976;11.858;2023-06-26T07:30:00;37.30;36.50
16823;DHT22;8528;49.976;11.858;2023-06-26T07:32:27;36.90;37.70
16823;DHT22;8528;49.976;11.858;2023-06-26T07:34:54;36.70;36.90
16823;DHT22;8528;49.976;11.858;2023-06-26T07:37:20;36.60;37.20
16823;DHT22;8528;49.976;11.858;2023-06-26T07:39:49;36.50;36.70
16823;DHT22;8528;49.976;11.858;2023-06-26T07:42:15;37.00;37.70
16823;DHT22;8528;49.976;11.858;2023-06-26T07:44:43;36.60;36.70
16823;DHT22;8528;49.976;11.858;2023-06-26T07:47:10;36.00;37.30
16823;DHT22;8528;49.976;11.858;2023-06-26T07:49:39;36.30;37.70
16823;DHT22;8528;49.976;11.858;2023-06-26T07:52:07;36.70;37.00
16823;DHT22;8528;49.976;11.858;2023-06-26T07:54:37;37.10;36.70
16823;DHT22;8528;49.976;11.858;2023-06-26T07:57:05;37.20;37.40
16823;DHT22;8528;49.976;11.858;2023-06-26T07:59:35;38.30;34.90
16823;DHT22;8528;49.976;11.858;2023-06-26T08:02:03;38.70;35.40
16823;DHT22;8528;49.976;11.858;2023-06-26T08:04:30;39.20;34.30
16823;DHT22;8528;49.976;11.858;2023-06-26T08:07:00;39.10;34.20
16823;DHT22;8528;49.976;11.858;2023-06-26T08:09:28;39.10;33.70
16823;DHT22;8528;49.976;11.858;2023-06-26T08:11:56;38.50;34.50
16823;DHT22;8528;49.976;11.858;2023-06-26T08:14:23;38.30;34.80
16823;DHT22;8528;49.976;11.858;2023-06-26T08:16:50;38.70;33.70
16823;DHT22;8528;49.976;11.858;2023-06-26T08:19:17;38.40;35.40
16823;DHT22;8528;49.976;11.858;2023-06-26T08:21:45;38.30;34.80
16823;DHT22;8528;49.976;11.858;2023-06-26T08:24:13;38.30;34.10
16823;DHT22;8528;49.976;11.858;2023-06-26T08:26:42;38.70;34.20
16823;DHT22;8528;49.976;11.858;2023-06-26T08:29:09;39.00;33.90
16823;DHT22;8528;49.976;11.858;2023-06-26T08:31:39;39.30;33.90
16823;DHT22;8528;49.976;11.858;2023-06-26T08:34:07;39.30;34.50
16823;DHT22;8528;49.976;11.858;2023-06-26T08:36:34;39.30;34.80
16823;DHT22;8528;49.976;11.858;2023-06-26T08:39:02;39.30;33.50
16823;DHT22;8528;49.976;11.858;2023-06-26T08:41:29;39.10;34.70
16823;DHT22;8528;49.976;11.858;2023-06-26T08:43:56;38.80;33.30
16823;DHT22;8528;49.976;11.858;2023-06-26T08:46:23;38.20;34.40
16823;DHT22;8528;49.976;11.858;2023-06-26T08:49:00;38.10;36.80
16823;DHT22;8528;49.976;11.858;2023-06-26T08:51:29;38.30;36.70
16823;DHT22;8528;49.976;11.858;2023-06-26T08:54:01;38.30;35.00
16823;DHT22;8528;49.976;11.858;2023-06-26T08:56:32;38.40;35.20
16823;DHT22;8528;49.976;11.858;2023-06-26T08:59:02;37.70;35.70
16823;DHT22;8528;49.976;11.858;2023-06-26T09:01:29;37.60;37.70
16823;DHT22;8528;49.976;11.858;2023-06-26T09:03:56;38.20;36.40
16823;DHT22;8528;49.976;11.858;2023-06-26T09:06:23;39.10;34.80
16823;DHT22;8528;49.976;11.858;2023-06-26T09:08:51;39.50;33.80
16823;DHT22;8528;49.976;11.858;2023-06-26T09:11:18;39.80;33.40
16823;DHT22;8528;49.976;11.858;2023-06-26T09:13:47;39.70;32.40
16823;DHT22;8528;49.976;11.858;2023-06-26T09:16:14;39.40;32.90
16823;DHT22;8528;49.976;11.858;2023-06-26T09:18:41;39.50;33.40
16823;DHT22;8528;49.976;11.858;2023-06-26T09:21:12;39.60;34.20
16823;DHT22;8528;49.976;11.858;2023-06-26T09:23:42;39.70;33.80
16823;DHT22;8528;49.976;11.858;2023-06-26T09:26:11;40.10;33.00
16823;DHT22;8528;49.976;11.858;2023-06-26T09:28:38;40.10;33.60
16823;DHT22;8528;49.976;11.858;2023-06-26T09:31:07;39.90;34.30
16823;DHT22;8528;49.976;11.858;2023-06-26T09:33:36;40.10;32.30
16823;DHT22;8528;49.976;11.858;2023-06-26T09:36:20;40.60;33.50
16823;DHT22;8528;49.976;11.858;2023-06-26T09:38:48;41.10;31.60
16823;DHT22;8528;49.976;11.858;2023-06-26T09:41:18;41.10;31.20
16823;DHT22;8528;49.976;11.858;2023-06-26T09:43:49;41.20;29.40
16823;DHT22;8528;49.976;11.858;2023-06-26T09:46:17;41.10;30.80
16823;DHT22;8528;49.976;11.858;2023-06-26T09:48:44;41.00;30.90
16823;DHT22;8528;49.976;11.858;2023-06-26T09:51:11;40.50;31.10
16823;DHT22;8528;49.976;11.858;2023-06-26T09:53:42;39.90;31.50
16823;DHT22;8528;49.976;11.858;2023-06-26T09:56:16;39.10;32.80
16823;DHT22;8528;49.976;11.858;2023-06-26T09:58:44;39.10;33.00
16823;DHT22;8528;49.976;11.858;2023-06-26T10:01:11;38.80;33.00
16823;DHT22;8528;49.976;11.858;2023-06-26T10:03:38;39.50;33.60
16823;DHT22;8528;49.976;11.858;2023-06-26T10:06:08;39.90;32.30
16823;DHT22;8528;49.976;11.858;2023-06-26T10:08:37;40.10;33.10
16823;DHT22;8528;49.976;11.858;2023-06-26T10:11:05;39.90;32.30
16823;DHT22;8528;49.976;11.858;2023-06-26T10:13:36;39.10;33.30
16823;DHT22;8528;49.976;11.858;2023-06-26T10:16:07;38.50;35.70
16823;DHT22;8528;49.976;11.858;2023-06-26T10:18:35;39.70;33.40
16823;DHT22;8528;49.976;11.858;2023-06-26T10:21:05;40.50;32.70
16823;DHT22;8528;49.976;11.858;2023-06-26T10:23:34;41.30;32.10
16823;DHT22;8528;49.976;11.858;2023-06-26T10:26:03;42.20;30.80
16823;DHT22;8528;49.976;11.858;2023-06-26T10:28:31;42.60;30.00
16823;DHT22;8528;49.976;11.858;2023-06-26T10:31:01;43.00;30.10
16823;DHT22;8528;49.976;11.858;2023-06-26T10:33:30;42.90;30.10
16823;DHT22;8528;49.976;11.858;2023-06-26T10:36:14;42.90;29.80
16823;DHT22;8528;49.976;11.858;2023-06-26T10:41:19;42.70;29.20
16823;DHT22;8528;49.976;11.858;2023-06-26T10:43:49;42.00;29.60
16823;DHT22;8528;49.976;11.858;2023-06-26T10:46:18;41.30;30.40
16823;DHT22;8528;49.976;11.858;2023-06-26T10:48:58;40.90;28.80
16823;DHT22;8528;49.976;11.858;2023-06-26T10:51:27;40.50;29.40
16823;DHT22;8528;49.976;11.858;2023-06-26T10:53:57;40.60;29.10
16823;DHT22;8528;49.976;11.858;2023-06-26T10:56:47;40.90;29.30
16823;DHT22;8528;49.976;11.858;2023-06-26T11:01:44;41.80;29.20
16823;DHT22;8528;49.976;11.858;2023-06-26T11:04:11;42.50;29.40
16823;DHT22;8528;49.976;11.858;2023-06-26T11:06:38;43.40;28.60
16823;DHT22;8528;49.976;11.858;2023-06-26T11:14:23;43.90;28.20
16823;DHT22;8528;49.976;11.858;2023-06-26T11:16:51;44.60;28.60
16823;DHT22;8528;49.976;11.858;2023-06-26T11:19:19;45.00;27.60
16823;DHT22;8528;49.976;11.858;2023-06-26T11:21:47;45.20;27.80
16823;DHT22;8528;49.976;11.858;2023-06-26T11:24:14;45.80;27.50
16823;DHT22;8528;49.976;11.858;2023-06-26T11:26:44;46.30;27.10
16823;DHT22;8528;49.976;11.858;2023-06-26T11:29:12;46.80;27.00
16823;DHT22;8528;49.976;11.858;2023-06-26T11:31:41;46.80;27.20
16823;DHT22;8528;49.976;11.858;2023-06-26T11:34:10;46.80;28.30
16823;DHT22;8528;49.976;11.858;2023-06-26T11:36:39;46.50;26.10
16823;DHT22;8528;49.976;11.858;2023-06-26T11:39:09;44.60;27.40
16823;DHT22;8528;49.976;11.858;2023-06-26T11:41:38;43.40;28.00
16823;DHT22;8528;49.976;11.858;2023-06-26T11:44:10;43.20;27.60
16823;DHT22;8528;49.976;11.858;2023-06-26T11:46:37;42.20;28.50
16823;DHT22;8528;49.976;11.858;2023-06-26T11:49:06;41.60;28.60
16823;DHT22;8528;49.976;11.858;2023-06-26T11:51:33;41.60;29.60
16823;DHT22;8528;49.976;11.858;2023-06-26T11:54:02;41.90;29.00
16823;DHT22;8528;49.976;11.858;2023-06-26T11:56:32;42.70;30.20
16823;DHT22;8528;49.976;11.858;2023-06-26T11:59:04;43.80;28.30
16823;DHT22;8528;49.976;11.858;2023-06-26T12:01:41;44.20;27.80
16823;DHT22;8528;49.976;11.858;2023-06-26T12:04:10;44.00;27.60
16823;DHT22;8528;49.976;11.858;2023-06-26T12:06:39;44.10;27.40
16823;DHT22;8528;49.976;11.858;2023-06-26T12:09:10;44.30;28.00
16823;DHT22;8528;49.976;11.858;2023-06-26T12:11:40;43.60;26.70
16823;DHT22;8528;49.976;11.858;2023-06-26T12:14:08;42.60;28.70
16823;DHT22;8528;49.976;11.858;2023-06-26T12:16:36;42.40;28.10
16823;DHT22;8528;49.976;11.858;2023-06-26T12:19:04;41.90;28.70
16823;DHT22;8528;49.976;11.858;2023-06-26T12:24:05;41.40;28.90
16823;DHT22;8528;49.976;11.858;2023-06-26T12:26:32;41.10;29.30
16823;DHT22;8528;49.976;11.858;2023-06-26T12:29:09;41.70;30.50
16823;DHT22;8528;49.976;11.858;2023-06-26T12:31:42;42.70;29.80
16823;DHT22;8528;49.976;11.858;2023-06-26T12:34:11;43.20;28.20
16823;DHT22;8528;49.976;11.858;2023-06-26T12:36:45;43.30;28.00
16823;DHT22;8528;49.976;11.858;2023-06-26T12:39:12;43.40;28.90
16823;DHT22;8528;49.976;11.858;2023-06-26T12:44:20;43.40;27.90
16823;DHT22;8528;49.976;11.858;2023-06-26T12:46:49;42.50;28.30
16823;DHT22;8528;49.976;11.858;2023-06-26T12:49:17;41.60;29.40
16823;DHT22;8528;49.976;11.858;2023-06-26T12:51:57;41.80;29.30
16823;DHT22;8528;49.976;11.858;2023-06-26T12:54:24;41.30;28.90
16823;DHT22;8528;49.976;11.858;2023-06-26T12:56:52;40.20;29.80
16823;DHT22;8528;49.976;11.858;2023-06-26T12:59:20;40.10;30.90
16823;DHT22;8528;49.976;11.858;2023-06-26T13:01:47;40.10;30.00
16823;DHT22;8528;49.976;11.858;2023-06-26T13:04:15;39.80;29.50
16823;DHT22;8528;49.976;11.858;2023-06-26T13:06:42;38.60;30.80
16823;DHT22;8528;49.976;11.858;2023-06-26T13:09:09;37.90;32.20
16823;DHT22;8528;49.976;11.858;2023-06-26T13:11:37;37.10;32.10
16823;DHT22;8528;49.976;11.858;2023-06-26T13:14:04;35.90;33.30
16823;DHT22;8528;49.976;11.858;2023-06-26T13:16:38;34.70;35.70
16823;DHT22;8528;49.976;11.858;2023-06-26T13:19:05;34.30;37.10
16823;DHT22;8528;49.976;11.858;2023-06-26T13:21:33;33.70;37.50
16823;DHT22;8528;49.976;11.858;2023-06-26T13:24:00;33.30;38.40
16823;DHT22;8528;49.976;11.858;2023-06-26T13:26:27;33.30;37.90
16823;DHT22;8528;49.976;11.858;2023-06-26T13:29:04;33.40;38.20
16823;DHT22;8528;49.976;11.858;2023-06-26T13:31:31;33.30;38.50
16823;DHT22;8528;49.976;11.858;2023-06-26T13:33:59;33.40;39.70
16823;DHT22;8528;49.976;11.858;2023-06-26T13:36:26;33.50;38.20
16823;DHT22;8528;49.976;11.858;2023-06-26T13:38:53;33.10;37.70
16823;DHT22;8528;49.976;11.858;2023-06-26T13:41:26;32.60;38.80
16823;DHT22;8528;49.976;11.858;2023-06-26T13:43:54;32.30;41.10
16823;DHT22;8528;49.976;11.858;2023-06-26T13:46:32;32.30;39.40
16823;DHT22;8528;49.976;11.858;2023-06-26T13:48:59;32.10;40.10
16823;DHT22;8528;49.976;11.858;2023-06-26T13:51:26;31.80;39.60
16823;DHT22;8528;49.976;11.858;2023-06-26T13:53:53;31.40;40.60
16823;DHT22;8528;49.976;11.858;2023-06-26T13:56:21;31.10;40.70
16823;DHT22;8528;49.976;11.858;2023-06-26T13:58:49;31.10;42.20
16823;DHT22;8528;49.976;11.858;2023-06-26T14:01:16;31.10;41.30
16823;DHT22;8528;49.976;11.858;2023-06-26T14:03:43;31.20;41.30
16823;DHT22;8528;49.976;11.858;2023-06-26T14:06:10;31.40;40.60
16823;DHT22;8528;49.976;11.858;2023-06-26T14:08:37;31.60;40.20
16823;DHT22;8528;49.976;11.858;2023-06-26T14:11:04;31.50;41.50
16823;DHT22;8528;49.976;11.858;2023-06-26T14:13:31;31.50;39.50
16823;DHT22;8528;49.976;11.858;2023-06-26T14:15:58;31.50;41.40
16823;DHT22;8528;49.976;11.858;2023-06-26T14:18:24;31.30;41.30
16823;DHT22;8528;49.976;11.858;2023-06-26T14:20:51;31.30;40.20
16823;DHT22;8528;49.976;11.858;2023-06-26T14:23:20;31.30;41.90
16823;DHT22;8528;49.976;11.858;2023-06-26T14:25:46;31.20;41.00
16823;DHT22;8528;49.976;11.858;2023-06-26T14:28:15;31.00;42.20
16823;DHT22;8528;49.976;11.858;2023-06-26T14:30:42;30.80;43.00
16823;DHT22;8528;49.976;11.858;2023-06-26T14:33:09;30.80;43.40
16823;DHT22;8528;49.976;11.858;2023-06-26T14:35:37;30.90;42.90
16823;DHT22;8528;49.976;11.858;2023-06-26T14:38:03;31.10;43.40
16823;DHT22;8528;49.976;11.858;2023-06-26T14:40:30;31.00;42.50
16823;DHT22;8528;49.976;11.858;2023-06-26T14:42:58;30.90;42.90
16823;DHT22;8528;49.976;11.858;2023-06-26T14:45:25;30.90;42.80
16823;DHT22;8528;49.976;11.858;2023-06-26T14:47:52;30.70;42.60
16823;DHT22;8528;49.976;11.858;2023-06-26T14:50:19;30.50;43.30
16823;DHT22;8528;49.976;11.858;2023-06-26T14:52:46;30.40;44.30
16823;DHT22;8528;49.976;11.858;2023-06-26T14:55:13;30.40;43.30
16823;DHT22;8528;49.976;11.858;2023-06-26T14:57:40;30.40;43.30
16823;DHT22;8528;49.976;11.858;2023-06-26T15:00:07;30.30;43.70
16823;DHT22;8528;49.976;11.858;2023-06-26T15:02:34;30.30;44.50
16823;DHT22;8528;49.976;11.858;2023-06-26T15:05:02;30.30;44.10
16823;DHT22;8528;49.976;11.858;2023-06-26T15:07:29;30.40;45.20
16823;DHT22;8528;49.976;11.858;2023-06-26T15:09:56;30.30;45.00
16823;DHT22;8528;49.976;11.858;2023-06-26T15:12:23;30.20;44.70
16823;DHT22;8528;49.976;11.858;2023-06-26T15:14:50;30.20;44.40
16823;DHT22;8528;49.976;11.858;2023-06-26T15:17:18;30.30;46.30
16823;DHT22;8528;49.976;11.858;2023-06-26T15:19:45;30.50;46.70
16823;DHT22;8528;49.976;11.858;2023-06-26T15:22:12;30.50;44.90
16823;DHT22;8528;49.976;11.858;2023-06-26T15:24:39;30.40;46.00
16823;DHT22;8528;49.976;11.858;2023-06-26T15:27:06;30.30;45.80
16823;DHT22;8528;49.976;11.858;2023-06-26T15:29:34;30.30;45.60
16823;DHT22;8528;49.976;11.858;2023-06-26T15:32:01;30.10;46.80
16823;DHT22;8528;49.976;11.858;2023-06-26T15:34:28;30.00;47.20
16823;DHT22;8528;49.976;11.858;2023-06-26T15:36:55;29.90;48.90
16823;DHT22;8528;49.976;11.858;2023-06-26T15:39:22;29.70;48.40
16823;DHT22;8528;49.976;11.858;2023-06-26T15:41:48;29.70;49.60
16823;DHT22;8528;49.976;11.858;2023-06-26T15:44:15;29.60;48.70
16823;DHT22;8528;49.976;11.858;2023-06-26T15:46:43;29.50;49.30
16823;DHT22;8528;49.976;11.858;2023-06-26T15:49:09;29.40;49.40
16823;DHT22;8528;49.976;11.858;2023-06-26T15:51:36;29.50;49.80